Airfield :
LOGIN :

Register | Disclaimer

   EN    FR    IT 

 










Legend :    VFR   Marginal VFR   IFR   Intensive IFR   Very Intensive IFR
Visi :
Ceiling :
>= 8 km
>= 3000ft
5 to 8 km
1000 to 3000 ft
1500m to 5 km
500 to 1000 ft
800 to 1500m
200 to 500 ft
< 800m
< 200 ft
Symbols :   Thunderstorms  Fog  Heavy snow  Heavy precipitations  Wind > 20 kt
SIGMETs :     Misc.  Thunderstorms  Icing  Turbulence  Mountain Waves  Volcanic Ashes







- Airport Elevation : 56 ft
- IATA code : ILY
- Download approach charts


EGPI - Islay

CURRENT METAR :
  • 241720Z AUTO 31019KT 280V350 9999 NCD 07/03 Q1027

EXPIRED METARs :
  • 241650Z 29026KT 9999 FEW028 08/04 Q1026
  • 241620Z 30021KT 9999 VCSH FEW025 SCT041 09/05 Q1026
  • 241550Z 30022KT 270V330 9999 FEW025 BKN038 09/06 Q1026
  • 241520Z 29022KT 9999 VCSH FEW025 SCT036 08/06 Q1026
  • 241450Z 30023G33KT 270V330 9999 -SHRA BKN023 SCT030 07/05 Q1026

TAF TAF EGPI
Valid from the 24 at 15:00 until the 24 at 18:00 UTC


241355Z 2415/2418 30018G30KT 9999 FEW025
TEMPO 2415/2418 6000 SHRA
PROB30
TEMPO 2415/2416 4000 +SHRA BKN014
No reported NOTAMs for that airfield.
2 SIGMETs reported for the Scottish FIR (EGPX) :
 
Severe turbulence
EGPX SIGMET 02 VALID 241800/242200 EGRR
EGPX SCOTTISH FIR SEV TURB FCST WI N5954 W00848 - N6027 W00330 - N5808 E00003 - N5807 W00001 - N5651 W00251 - N5954 W00848 SFC/FL060 MOV SE 25KT NC=
Severe turbulence
EGPX SIGMET 01 VALID 241400/241800 EGRR
EGPX SCOTTISH FIR SEV TURB FCST WI N6100 W01000 - N6100 W00452 - N5851 W00049 - N5704 W00457 - N5904 W01000 - N6100 W01000 SFC/FL060 MOV SE 25KT NC=



MET'MAP, your aeronautical weather chart ! - Copyright ORBIFLY December 2007 - Disclaimer

ORBIFLY MET'MAP TEAM :

Programming & Development : Alexandra Zaïnal
Concept & Development : Baudouin d'Aumeries
Co-Development & Prog : Marc-Olivier Méhu
Technical & hardware support : Manuel Goepfert

Contact : metmap@orbifly.com




SOURCES & CREDITS :

   NOAA